createdAt,value
2023-01-01T00:01:25.111Z,14.92
2023-01-01T00:03:54.596Z,14.92
2023-01-01T00:06:22.767Z,14.97
2023-01-01T00:09:08.651Z,14.98
2023-01-01T00:11:35.923Z,14.98
2023-01-01T00:14:08.362Z,14.92
2023-01-01T00:16:42.730Z,14.91
2023-01-01T00:19:12.870Z,14.83
2023-01-01T00:21:40.195Z,14.82
2023-01-01T00:24:08.089Z,14.94
2023-01-01T00:26:35.757Z,14.97
2023-01-01T00:29:05.339Z,14.92
2023-01-01T00:31:39.012Z,15.01
2023-01-01T00:34:06.415Z,15.10
2023-01-01T00:36:33.704Z,15.03
2023-01-01T00:39:02.764Z,15.01
2023-01-01T00:41:30.042Z,14.95
2023-01-01T00:43:57.104Z,14.98
2023-01-01T00:46:32.402Z,14.88
2023-01-01T00:48:59.740Z,14.93
2023-01-01T00:51:30.425Z,14.91
2023-01-01T00:54:02.289Z,14.87
2023-01-01T00:56:29.635Z,14.75
2023-01-01T00:59:00.606Z,14.76
2023-01-01T01:01:29.190Z,14.90
2023-01-01T01:03:56.353Z,14.88
2023-01-01T01:06:24.449Z,14.81
2023-01-01T01:08:51.642Z,14.80
2023-01-01T01:11:24.636Z,14.83
2023-01-01T01:13:56.927Z,14.73
2023-01-01T01:16:41.332Z,14.63
2023-01-01T01:19:13.857Z,14.64
2023-01-01T01:21:41.649Z,14.63
2023-01-01T01:24:09.738Z,14.70
2023-01-01T01:26:37.811Z,14.72
2023-01-01T01:29:14.105Z,14.67
2023-01-01T01:31:42.330Z,14.72
2023-01-01T01:34:16.023Z,14.64
2023-01-01T01:36:43.537Z,14.59
2023-01-01T01:39:12.684Z,14.48
2023-01-01T01:41:39.793Z,14.46
2023-01-01T01:44:45.416Z,14.31
2023-01-01T01:47:43.250Z,14.31
2023-01-01T01:50:19.795Z,14.26
2023-01-01T01:53:08.735Z,14.13
2023-01-01T01:55:43.169Z,13.92
2023-01-01T01:58:13.561Z,14.04
2023-01-01T02:00:40.702Z,14.02
2023-01-01T02:03:12.520Z,13.93
2023-01-01T02:05:41.357Z,13.84
2023-01-01T02:08:10.064Z,13.78
2023-01-01T02:10:37.223Z,13.75
2023-01-01T02:13:04.397Z,13.75
2023-01-01T02:15:38.909Z,13.77
2023-01-01T02:18:14.241Z,13.74
2023-01-01T02:21:06.076Z,13.66
2023-01-01T02:23:48.192Z,13.57
2023-01-01T02:26:25.751Z,13.64
2023-01-01T02:29:07.843Z,13.51
2023-01-01T02:31:40.300Z,13.47
2023-01-01T02:34:12.020Z,13.56
2023-01-01T02:36:45.819Z,13.65
2023-01-01T02:39:15.451Z,13.73
2023-01-01T02:41:47.127Z,13.59
2023-01-01T02:44:15.194Z,13.58
2023-01-01T02:46:42.659Z,13.50
2023-01-01T02:49:11.232Z,13.65
2023-01-01T02:51:44.437Z,13.60
2023-01-01T02:54:17.182Z,13.55
2023-01-01T02:56:50.883Z,13.64
2023-01-01T02:59:36.348Z,13.64
2023-01-01T03:02:19.515Z,13.64
2023-01-01T03:04:53.914Z,13.60
2023-01-01T03:07:35.999Z,13.54
2023-01-01T03:10:15.849Z,13.42
2023-01-01T03:13:00.531Z,13.41
2023-01-01T03:15:36.665Z,13.46
2023-01-01T03:18:15.583Z,13.47
2023-01-01T03:20:47.747Z,13.30
2023-01-01T03:23:21.267Z,13.36
2023-01-01T03:25:54.458Z,13.31
2023-01-01T03:28:27.432Z,13.10
2023-01-01T03:30:56.494Z,13.06
2023-01-01T03:33:30.270Z,13.22
2023-01-01T03:36:02.101Z,13.11
2023-01-01T03:38:39.089Z,12.99
2023-01-01T03:41:17.204Z,13.05
2023-01-01T03:44:02.951Z,13.06
2023-01-01T03:46:34.775Z,12.78
2023-01-01T03:49:05.427Z,12.67
2023-01-01T03:51:44.304Z,12.75
2023-01-01T03:54:30.907Z,12.95
2023-01-01T03:57:16.496Z,12.94
2023-01-01T03:59:53.663Z,13.11
2023-01-01T04:02:25.532Z,13.00
2023-01-01T04:04:53.317Z,12.89
2023-01-01T04:07:21.283Z,12.83
2023-01-01T04:09:50.570Z,12.76
2023-01-01T04:12:19.054Z,12.67
2023-01-01T04:14:46.412Z,12.70
2023-01-01T04:17:18.747Z,12.70
2023-01-01T04:19:51.516Z,12.75
2023-01-01T04:22:31.301Z,12.85
2023-01-01T04:24:58.499Z,12.69
2023-01-01T04:27:25.619Z,12.83
2023-01-01T04:29:52.688Z,12.68
2023-01-01T04:32:19.837Z,12.72
2023-01-01T04:34:46.903Z,12.63
2023-01-01T04:37:14.347Z,12.59
2023-01-01T04:39:42.077Z,12.63
2023-01-01T04:42:09.502Z,12.60
2023-01-01T04:44:36.595Z,12.65
2023-01-01T04:47:03.976Z,12.62
2023-01-01T04:49:32.524Z,12.61
2023-01-01T04:51:59.618Z,12.68
2023-01-01T04:54:29.138Z,12.73
2023-01-01T04:56:59.609Z,12.74
2023-01-01T04:59:26.960Z,12.77
2023-01-01T05:01:54.417Z,12.65
2023-01-01T05:04:21.636Z,12.65
2023-01-01T05:06:48.752Z,12.59
2023-01-01T05:09:24.929Z,12.66
2023-01-01T05:11:54.234Z,12.60
2023-01-01T05:14:27.079Z,12.56
2023-01-01T05:16:54.194Z,12.52
2023-01-01T05:19:21.447Z,12.60
2023-01-01T05:21:48.565Z,12.55
2023-01-01T05:24:15.927Z,12.60
2023-01-01T05:26:48.233Z,12.68
2023-01-01T05:29:17.509Z,12.71
2023-01-01T05:31:48.315Z,12.74
2023-01-01T05:34:15.478Z,12.68
2023-01-01T05:36:42.646Z,12.72
2023-01-01T05:39:12.477Z,12.75
2023-01-01T05:41:40.700Z,12.79
2023-01-01T05:44:09.751Z,12.78
2023-01-01T05:46:37.553Z,12.81
2023-01-01T05:49:04.932Z,12.70
2023-01-01T05:54:01.019Z,12.70
2023-01-01T05:56:28.312Z,12.81
2023-01-01T05:58:56.469Z,12.84
2023-01-01T06:01:26.605Z,12.86
2023-01-01T06:03:55.057Z,12.89
2023-01-01T06:06:28.612Z,12.89
2023-01-01T06:09:01.895Z,12.89
2023-01-01T06:11:30.064Z,12.84
2023-01-01T06:13:59.086Z,12.89
2023-01-01T06:16:27.843Z,12.96
2023-01-01T06:18:55.023Z,12.96
2023-01-01T06:21:24.429Z,13.05
2023-01-01T06:23:51.881Z,13.00
2023-01-01T06:26:27.977Z,12.97
2023-01-01T06:28:55.783Z,12.92
2023-01-01T06:31:23.445Z,12.97
2023-01-01T06:33:51.122Z,13.01
2023-01-01T06:36:21.158Z,13.01
2023-01-01T06:38:50.677Z,13.02
2023-01-01T06:41:20.436Z,13.04
2023-01-01T06:43:47.849Z,13.05
2023-01-01T06:46:24.301Z,13.15
2023-01-01T06:48:55.395Z,13.11
2023-01-01T06:51:24.959Z,13.16
2023-01-01T06:53:53.028Z,13.09
2023-01-01T06:56:20.953Z,13.00
2023-01-01T06:58:48.026Z,13.00
2023-01-01T07:01:19.111Z,13.11
2023-01-01T07:04:00.766Z,13.10
2023-01-01T07:06:30.391Z,13.02
2023-01-01T07:08:57.845Z,13.00
2023-01-01T07:11:25.488Z,13.11
2023-01-01T07:13:55.811Z,13.06
2023-01-01T07:16:26.395Z,13.05
2023-01-01T07:18:53.754Z,13.03
2023-01-01T07:21:29.624Z,13.03
2023-01-01T07:23:58.191Z,13.10
2023-01-01T07:26:26.261Z,13.07
2023-01-01T07:28:53.912Z,13.21
2023-01-01T07:31:21.368Z,13.16
2023-01-01T07:33:48.521Z,13.17
2023-01-01T07:36:16.749Z,13.18
2023-01-01T07:38:43.917Z,13.27
2023-01-01T07:41:13.120Z,13.29
2023-01-01T07:43:40.220Z,13.33
2023-01-01T07:46:07.340Z,13.35
2023-01-01T07:48:39.787Z,13.32
2023-01-01T07:51:07.388Z,13.31
2023-01-01T07:53:34.504Z,13.21
2023-01-01T07:56:01.837Z,13.18
2023-01-01T07:58:29.040Z,13.20
2023-01-01T08:00:56.143Z,13.29
2023-01-01T08:03:23.306Z,13.35
2023-01-01T08:05:50.492Z,13.54
2023-01-01T08:08:17.585Z,13.55
2023-01-01T08:10:44.688Z,13.63
2023-01-01T08:13:11.800Z,13.64
2023-01-01T08:15:38.911Z,13.67
2023-01-01T08:18:06.183Z,13.73
2023-01-01T08:20:33.937Z,13.86
2023-01-01T08:23:06.940Z,13.80
2023-01-01T08:25:35.334Z,13.85
2023-01-01T08:28:02.401Z,13.92
2023-01-01T08:30:29.460Z,13.92
2023-01-01T08:32:56.555Z,13.95
2023-01-01T08:35:23.704Z,14.04
2023-01-01T08:37:51.007Z,14.25
2023-01-01T08:40:18.135Z,14.42
2023-01-01T08:42:45.249Z,14.42
2023-01-01T08:45:12.336Z,14.45
2023-01-01T08:47:39.491Z,14.34
2023-01-01T08:50:07.176Z,14.42
2023-01-01T08:52:34.267Z,14.43
2023-01-01T08:55:01.386Z,14.42
2023-01-01T08:57:36.511Z,14.40
2023-01-01T09:00:04.552Z,14.36
2023-01-01T09:02:33.697Z,14.38
2023-01-01T09:05:02.274Z,14.30
2023-01-01T09:07:29.357Z,14.36
2023-01-01T09:09:56.462Z,14.31
2023-01-01T09:12:23.595Z,14.31
2023-01-01T09:14:50.662Z,14.27
2023-01-01T09:17:17.759Z,14.23
2023-01-01T09:19:44.831Z,14.27
2023-01-01T09:22:12.351Z,14.21
2023-01-01T09:24:39.619Z,14.25
2023-01-01T09:27:17.117Z,14.34
2023-01-01T09:29:52.926Z,14.34
2023-01-01T09:32:25.177Z,14.38
2023-01-01T09:35:04.215Z,14.47
2023-01-01T09:37:31.469Z,14.55
2023-01-01T09:40:01.279Z,14.65
2023-01-01T09:42:40.528Z,14.67
2023-01-01T09:45:10.473Z,14.72
2023-01-01T09:47:45.201Z,14.69
2023-01-01T09:50:16.786Z,14.79
2023-01-01T09:52:58.201Z,14.87
2023-01-01T09:55:35.267Z,15.03
2023-01-01T09:58:08.061Z,14.93
2023-01-01T10:00:35.809Z,15.12
2023-01-01T10:03:36.984Z,15.09
2023-01-01T10:06:26.021Z,15.15
2023-01-01T10:09:15.243Z,15.02
2023-01-01T10:11:58.814Z,15.10
2023-01-01T10:14:34.431Z,15.35
2023-01-01T10:17:17.031Z,15.29
2023-01-01T10:20:22.046Z,15.30
2023-01-01T10:23:14.643Z,15.41
2023-01-01T10:25:48.443Z,15.22
2023-01-01T10:28:51.667Z,15.21
2023-01-01T10:31:28.289Z,15.15
2023-01-01T10:36:59.250Z,15.04
2023-01-01T10:39:28.041Z,15.08
2023-01-01T10:42:02.169Z,15.18
2023-01-01T10:44:42.567Z,15.23
2023-01-01T10:47:22.879Z,15.36
2023-01-01T10:50:07.947Z,15.56
2023-01-01T10:52:38.623Z,15.62
2023-01-01T10:55:19.006Z,15.68
2023-01-01T10:57:46.166Z,15.68
2023-01-01T11:00:23.672Z,15.66
2023-01-01T11:03:13.792Z,15.60
2023-01-01T11:06:01.443Z,15.47
2023-01-01T11:08:41.215Z,15.57
2023-01-01T11:11:21.092Z,15.54
2023-01-01T11:13:59.970Z,15.75
2023-01-01T11:16:29.045Z,15.62
2023-01-01T11:19:04.841Z,15.75
2023-01-01T11:21:34.794Z,15.65
2023-01-01T11:24:20.893Z,15.56
2023-01-01T11:26:55.122Z,15.47
2023-01-01T11:29:29.726Z,15.41
2023-01-01T11:31:58.769Z,15.42
2023-01-01T11:34:43.097Z,15.48
2023-01-01T11:37:34.013Z,15.58
2023-01-01T11:40:06.664Z,15.44
2023-01-01T11:42:35.702Z,15.56
2023-01-01T11:45:53.071Z,15.55
2023-01-01T11:48:30.353Z,15.57
2023-01-01T11:51:06.544Z,15.59
2023-01-01T11:53:42.144Z,15.65
2023-01-01T11:56:16.616Z,15.76
2023-01-01T11:59:06.944Z,15.75
2023-01-01T12:01:47.998Z,15.87
2023-01-01T12:04:33.647Z,15.86
2023-01-01T12:07:20.644Z,15.87
2023-01-01T12:09:58.982Z,15.76
2023-01-01T12:13:14.201Z,15.66
2023-01-01T12:15:53.802Z,15.79
2023-01-01T12:18:53.223Z,15.80
2023-01-01T12:21:35.268Z,15.66
2023-01-01T12:24:10.421Z,15.62
2023-01-01T12:27:16.235Z,15.67
2023-01-01T12:30:06.910Z,15.57
2023-01-01T12:33:15.990Z,15.64
2023-01-01T12:36:09.809Z,15.55
2023-01-01T12:39:04.249Z,15.41
2023-01-01T12:41:52.249Z,15.38
2023-01-01T12:44:57.188Z,15.40
2023-01-01T12:47:33.457Z,15.39
2023-01-01T12:50:16.904Z,15.46
2023-01-01T12:52:59.180Z,15.39
2023-01-01T12:55:57.509Z,15.41
2023-01-01T12:58:32.376Z,15.43
2023-01-01T13:01:14.228Z,15.43
2023-01-01T13:03:58.542Z,15.39
2023-01-01T13:06:49.520Z,15.31
2023-01-01T13:09:30.278Z,15.29
2023-01-01T13:12:05.953Z,15.29
2023-01-01T13:14:40.525Z,15.32
2023-01-01T13:17:22.709Z,15.32
2023-01-01T13:19:59.387Z,15.24
2023-01-01T13:22:26.438Z,15.15
2023-01-01T13:25:18.506Z,15.13
2023-01-01T13:27:57.873Z,15.15
2023-01-01T13:30:37.512Z,15.06
2023-01-01T13:33:35.069Z,14.94
2023-01-01T13:36:14.190Z,14.98
2023-01-01T13:38:55.021Z,15.06
2023-01-01T13:41:41.148Z,14.98
2023-01-01T13:44:08.196Z,14.94
2023-01-01T13:46:51.768Z,14.95
2023-01-01T13:49:46.628Z,14.94
2023-01-01T13:52:32.727Z,14.98
2023-01-01T13:55:19.190Z,14.88
2023-01-01T13:58:04.815Z,14.93
2023-01-01T14:01:05.307Z,14.80
2023-01-01T14:03:42.606Z,14.80
2023-01-01T14:06:27.244Z,14.84
2023-01-01T14:09:10.337Z,14.68
2023-01-01T14:11:37.549Z,14.61
2023-01-01T14:14:24.581Z,14.54
2023-01-01T14:16:55.133Z,14.50
2023-01-01T14:19:24.377Z,14.26
2023-01-01T14:21:52.872Z,14.33
2023-01-01T14:24:22.685Z,14.26
2023-01-01T14:26:50.956Z,14.24
2023-01-01T14:29:29.101Z,14.21
2023-01-01T14:32:12.121Z,14.09
2023-01-01T14:34:39.270Z,13.93
2023-01-01T14:37:21.711Z,13.88
2023-01-01T14:40:05.552Z,13.95
2023-01-01T14:42:34.253Z,13.92
2023-01-01T14:45:01.521Z,13.97
2023-01-01T14:47:34.957Z,13.75
2023-01-01T14:50:17.435Z,13.65
2023-01-01T14:52:45.847Z,13.77
2023-01-01T14:55:19.042Z,13.83
2023-01-01T14:57:48.884Z,13.67
2023-01-01T15:00:31.221Z,13.74
2023-01-01T15:03:17.017Z,13.73
2023-01-01T15:05:47.059Z,13.69
2023-01-01T15:08:24.069Z,13.70
2023-01-01T15:10:51.667Z,13.77
2023-01-01T15:13:24.533Z,13.58
2023-01-01T15:15:54.896Z,13.65
2023-01-01T15:18:38.179Z,13.58
2023-01-01T15:21:21.663Z,13.50
2023-01-01T15:23:56.470Z,13.49
2023-01-01T15:26:26.691Z,13.50
2023-01-01T15:28:54.263Z,13.33
2023-01-01T15:31:21.407Z,13.32
2023-01-01T15:33:49.509Z,13.44
2023-01-01T15:36:16.923Z,13.53
2023-01-01T15:38:48.309Z,13.35
2023-01-01T15:41:41.752Z,13.33
2023-01-01T15:44:14.989Z,13.43
2023-01-01T15:46:47.618Z,13.35
2023-01-01T15:49:28.084Z,13.31
2023-01-01T15:52:03.886Z,13.50
2023-01-01T15:54:39.808Z,13.45
2023-01-01T15:57:27.337Z,13.28
2023-01-01T15:59:55.416Z,13.30
2023-01-01T16:02:38.801Z,13.45
2023-01-01T16:05:14.626Z,13.23
2023-01-01T16:07:42.113Z,13.18
2023-01-01T16:10:17.633Z,13.26
2023-01-01T16:12:44.825Z,13.28
2023-01-01T16:15:16.058Z,13.28
2023-01-01T16:17:44.243Z,13.29
2023-01-01T16:20:19.100Z,13.09
2023-01-01T16:22:46.208Z,13.07
2023-01-01T16:25:21.615Z,13.02
2023-01-01T16:27:49.654Z,13.11
2023-01-01T16:30:16.899Z,12.96
2023-01-01T16:32:45.025Z,12.82
2023-01-01T16:35:13.741Z,12.82
2023-01-01T16:37:41.060Z,12.76
2023-01-01T16:40:09.646Z,12.71
2023-01-01T16:42:36.874Z,12.83
2023-01-01T16:45:04.378Z,12.81
2023-01-01T16:47:31.507Z,12.91
2023-01-01T16:49:58.642Z,12.83
2023-01-01T16:52:29.948Z,12.74
2023-01-01T16:55:00.260Z,12.73
2023-01-01T16:57:27.720Z,12.65
2023-01-01T16:59:54.893Z,12.62
2023-01-01T17:02:22.199Z,12.77
2023-01-01T17:04:49.580Z,12.78
2023-01-01T17:07:16.852Z,12.74
2023-01-01T17:09:44.355Z,12.77
2023-01-01T17:12:11.785Z,12.82
2023-01-01T17:14:39.151Z,12.92
2023-01-01T17:17:06.247Z,12.98
2023-01-01T17:19:36.547Z,12.94
2023-01-01T17:22:10.183Z,12.88
2023-01-01T17:24:37.215Z,12.77
2023-01-01T17:27:04.607Z,12.82
2023-01-01T17:29:31.780Z,12.85
2023-01-01T17:32:04.705Z,12.81
2023-01-01T17:34:31.907Z,12.84
2023-01-01T17:36:59.285Z,12.76
2023-01-01T17:39:26.533Z,12.76
2023-01-01T17:41:53.801Z,12.75
2023-01-01T17:44:20.988Z,12.82
2023-01-01T17:46:49.278Z,12.83
2023-01-01T17:49:16.552Z,12.85
2023-01-01T17:51:43.813Z,12.85
2023-01-01T17:54:13.769Z,12.70
2023-01-01T17:56:41.320Z,12.80
2023-01-01T17:59:09.433Z,12.72
2023-01-01T18:01:36.690Z,12.76
2023-01-01T18:04:07.224Z,12.77
2023-01-01T18:06:41.472Z,12.83
2023-01-01T18:09:12.436Z,12.85
2023-01-01T18:11:39.901Z,12.82
2023-01-01T18:14:07.228Z,12.78
2023-01-01T18:16:36.695Z,12.78
2023-01-01T18:19:05.380Z,12.82
2023-01-01T18:21:35.889Z,12.67
2023-01-01T18:24:03.084Z,12.56
2023-01-01T18:26:31.338Z,12.72
2023-01-01T18:29:05.103Z,12.78
2023-01-01T18:31:34.275Z,12.77
2023-01-01T18:34:04.206Z,12.72
2023-01-01T18:36:33.669Z,12.66
2023-01-01T18:39:02.481Z,12.63
2023-01-01T18:41:43.504Z,12.76
2023-01-01T18:44:26.028Z,12.83
2023-01-01T18:47:11.591Z,12.78
2023-01-01T18:49:38.910Z,12.79
2023-01-01T18:52:05.945Z,12.89
2023-01-01T18:54:34.478Z,13.01
2023-01-01T18:57:29.943Z,12.85
2023-01-01T19:00:15.240Z,12.91
2023-01-01T19:02:54.125Z,12.98
2023-01-01T19:05:26.926Z,13.10
2023-01-01T19:08:12.961Z,13.03
2023-01-01T19:10:42.754Z,12.99
2023-01-01T19:13:15.106Z,13.05
2023-01-01T19:15:57.798Z,13.11
2023-01-01T19:18:30.244Z,13.11
2023-01-01T19:21:22.251Z,13.00
2023-01-01T19:23:50.805Z,13.16
2023-01-01T19:26:29.799Z,13.13
2023-01-01T19:29:00.717Z,13.06
2023-01-01T19:31:27.916Z,13.09
2023-01-01T19:33:55.107Z,13.11
2023-01-01T19:36:22.435Z,13.03
2023-01-01T19:38:49.527Z,13.10
2023-01-01T19:41:16.606Z,13.13
2023-01-01T19:43:43.838Z,13.23
2023-01-01T19:46:10.965Z,13.22
2023-01-01T19:48:38.074Z,13.25
2023-01-01T19:51:06.407Z,13.18
2023-01-01T19:53:40.896Z,13.12
2023-01-01T19:56:08.105Z,13.15
2023-01-01T19:58:35.284Z,13.23
2023-01-01T20:01:04.592Z,13.18
2023-01-01T20:03:53.437Z,13.16
2023-01-01T20:06:18.927Z,13.13
2023-01-01T20:08:46.091Z,13.12
2023-01-01T20:11:13.171Z,13.00
2023-01-01T20:13:40.286Z,13.04
2023-01-01T20:16:08.210Z,12.98
2023-01-01T20:18:35.398Z,13.09
2023-01-01T20:21:25.932Z,13.11
2023-01-01T20:23:55.460Z,13.11
2023-01-01T20:26:23.931Z,13.11
2023-01-01T20:29:09.943Z,13.16
2023-01-01T20:31:37.273Z,13.16
2023-01-01T20:34:05.238Z,13.06
2023-01-01T20:36:51.048Z,13.05
2023-01-01T20:39:18.275Z,13.12
2023-01-01T20:41:45.590Z,13.18
2023-01-01T20:44:12.685Z,13.22
2023-01-01T20:46:41.219Z,13.34
2023-01-01T20:49:08.469Z,13.33
2023-01-01T20:51:35.693Z,13.45
2023-01-01T20:54:03.376Z,13.47
2023-01-01T20:56:30.541Z,13.36
2023-01-01T20:59:04.448Z,13.37
2023-01-01T21:01:40.076Z,13.33
2023-01-01T21:04:07.824Z,13.35
2023-01-01T21:06:35.168Z,13.35
2023-01-01T21:09:05.271Z,13.35
2023-01-01T21:11:33.408Z,13.31
2023-01-01T21:14:05.402Z,13.22
2023-01-01T21:16:37.220Z,13.17
2023-01-01T21:19:07.821Z,13.11
2023-01-01T21:21:47.425Z,13.10
2023-01-01T21:24:37.612Z,13.06
2023-01-01T21:27:07.791Z,13.02
2023-01-01T21:29:35.352Z,12.96
2023-01-01T21:32:16.535Z,12.89
2023-01-01T21:34:44.773Z,12.80
2023-01-01T21:37:47.240Z,12.76
2023-01-01T21:40:24.389Z,12.73
2023-01-01T21:42:58.300Z,12.68
2023-01-01T21:45:31.491Z,12.54
2023-01-01T21:48:11.572Z,12.46
2023-01-01T21:50:42.824Z,12.46
2023-01-01T21:53:15.512Z,12.42
2023-01-01T21:55:52.857Z,12.44
2023-01-01T21:58:45.777Z,12.33
2023-01-01T22:01:30.157Z,12.23
2023-01-01T22:04:02.458Z,12.15
2023-01-01T22:06:39.143Z,12.10
2023-01-01T22:09:21.763Z,12.14
2023-01-01T22:11:56.827Z,12.24
2023-01-01T22:14:27.382Z,12.29
2023-01-01T22:16:58.434Z,12.30
2023-01-01T22:19:31.288Z,12.27
2023-01-01T22:21:59.490Z,12.21
2023-01-01T22:24:26.510Z,12.16
2023-01-01T22:26:53.649Z,12.14
2023-01-01T22:29:26.186Z,12.14
2023-01-01T22:32:13.101Z,12.10
2023-01-01T22:34:40.275Z,12.09
2023-01-01T22:37:20.314Z,12.05
2023-01-01T22:39:48.207Z,12.07
2023-01-01T22:42:17.120Z,12.11
2023-01-01T22:44:57.561Z,12.15
2023-01-01T22:47:36.096Z,12.18
2023-01-01T22:50:09.043Z,12.24
2023-01-01T22:52:36.120Z,12.33
2023-01-01T22:55:03.355Z,12.42
2023-01-01T22:57:33.444Z,12.46
2023-01-01T23:00:00.519Z,12.43
2023-01-01T23:02:30.564Z,12.42
2023-01-01T23:04:57.777Z,12.44
2023-01-01T23:07:25.550Z,12.45
2023-01-01T23:09:56.953Z,12.55
2023-01-01T23:12:27.129Z,12.60
2023-01-01T23:15:18.202Z,12.68
2023-01-01T23:17:54.164Z,12.71
2023-01-01T23:20:21.512Z,12.74
2023-01-01T23:22:52.880Z,12.85
2023-01-01T23:25:21.390Z,12.82
2023-01-01T23:27:50.356Z,12.78
2023-01-01T23:30:20.330Z,12.80
2023-01-01T23:32:47.891Z,12.80
2023-01-01T23:35:19.337Z,12.85
2023-01-01T23:37:46.660Z,12.82
2023-01-01T23:40:13.796Z,12.82
2023-01-01T23:42:40.994Z,12.79
2023-01-01T23:45:08.455Z,12.78
2023-01-01T23:47:35.658Z,12.84
2023-01-01T23:50:03.501Z,12.85
2023-01-01T23:52:33.169Z,12.93
2023-01-01T23:55:00.205Z,13.01
2023-01-01T23:57:27.691Z,13.05
2023-01-01T23:59:55.927Z,13.05
